createdAt,value
2017-06-17T06:36:11.615Z,18.84
2017-06-17T06:38:55.034Z,18.78
2017-06-17T06:42:33.833Z,18.57
2017-06-17T06:47:46.680Z,18.30
2017-06-17T06:50:30.872Z,18.23
2017-06-17T06:53:25.359Z,18.10
2017-06-17T06:58:01.789Z,17.90
2017-06-17T07:08:18.431Z,17.95
2017-06-17T07:11:01.952Z,18.01
2017-06-17T07:13:55.866Z,17.99
2017-06-17T07:16:50.401Z,17.93
2017-06-17T07:23:31.046Z,17.97
2017-06-17T07:26:15.067Z,18.13
2017-06-17T07:29:10.121Z,18.22
2017-06-17T07:32:04.183Z,18.27
2017-06-17T07:35:10.293Z,18.30
2017-06-17T07:38:11.519Z,18.35
2017-06-17T07:45:21.280Z,18.65
2017-06-17T07:48:05.294Z,18.88
2017-06-17T07:50:59.417Z,19.00
2017-06-17T07:53:54.060Z,19.08
2017-06-17T07:56:48.884Z,19.12
2017-06-17T07:59:43.698Z,19.14
2017-06-17T08:02:38.706Z,19.12
2017-06-17T08:05:33.568Z,19.13
2017-06-17T08:11:23.479Z,19.05
2017-06-17T08:14:18.430Z,18.98
2017-06-17T08:17:13.278Z,18.94
2017-06-17T08:20:08.263Z,18.92
2017-06-17T08:23:03.125Z,18.90
2017-06-17T08:25:58.125Z,18.86
2017-06-17T08:28:53.038Z,18.80
2017-06-17T08:31:48.118Z,18.74
2017-06-17T08:34:42.943Z,18.72
2017-06-17T08:37:37.944Z,18.72
2017-06-17T08:40:32.785Z,18.72
2017-06-17T08:43:27.674Z,18.71
2017-06-17T08:46:22.638Z,18.72
2017-06-17T08:49:17.593Z,18.74
2017-06-17T08:52:12.495Z,18.74
2017-06-17T08:55:07.448Z,18.71
2017-06-17T08:58:02.428Z,18.75
2017-06-17T09:00:57.524Z,18.90
2017-06-17T09:03:52.605Z,19.11
2017-06-17T09:06:47.796Z,19.30
2017-06-17T09:09:42.789Z,19.43
2017-06-17T09:12:37.875Z,19.52
2017-06-17T09:18:27.758Z,19.57
2017-06-17T09:21:22.788Z,19.61
2017-06-17T09:24:17.975Z,19.76
2017-06-17T09:27:13.043Z,19.95
2017-06-17T09:30:08.281Z,20.10
2017-06-17T09:33:03.297Z,20.18
2017-06-17T09:35:58.426Z,20.20
2017-06-17T09:38:53.458Z,20.22
2017-06-17T09:41:48.507Z,20.29
2017-06-17T09:44:43.640Z,20.36
2017-06-17T09:47:38.908Z,20.49
2017-06-17T09:50:34.248Z,20.81
2017-06-17T09:53:29.541Z,21.04
2017-06-17T09:56:24.726Z,21.29
2017-06-17T09:59:20.091Z,21.55
2017-06-17T10:02:15.420Z,21.76
2017-06-17T10:05:10.814Z,21.99
2017-06-17T10:08:06.612Z,22.60
2017-06-17T10:11:02.774Z,23.41
2017-06-17T10:13:58.799Z,24.25
2017-06-17T10:16:54.697Z,24.88
2017-06-17T10:19:50.766Z,25.47
2017-06-17T10:22:46.918Z,25.97
2017-06-17T10:28:38.982Z,26.68
2017-06-17T10:31:34.890Z,26.84
2017-06-17T10:34:30.524Z,26.87
2017-06-17T10:37:25.993Z,26.72
2017-06-17T10:40:21.537Z,26.60
2017-06-17T10:46:12.609Z,26.13
2017-06-17T10:49:08.152Z,25.89
2017-06-17T10:52:03.681Z,25.60
2017-06-17T10:57:54.815Z,25.22
2017-06-17T11:00:50.380Z,25.03
2017-06-17T11:03:45.926Z,24.83
2017-06-17T11:06:41.408Z,24.63
2017-06-17T11:09:36.959Z,24.47
2017-06-17T11:12:32.410Z,24.33
2017-06-17T11:15:27.919Z,24.19
2017-06-17T11:24:14.455Z,23.74
2017-06-17T11:27:09.893Z,23.59
2017-06-17T11:30:05.397Z,23.48
2017-06-17T11:33:00.964Z,23.37
2017-06-17T11:35:56.401Z,23.25
2017-06-17T11:38:51.925Z,23.12
2017-06-17T11:41:47.459Z,23.01
2017-06-17T11:44:42.863Z,22.93
2017-06-17T11:47:38.290Z,22.87
2017-06-17T11:50:33.612Z,22.83
2017-06-17T11:53:29.058Z,22.79
2017-06-17T11:56:24.433Z,22.75
2017-06-17T11:59:19.899Z,22.71
2017-06-17T12:02:15.377Z,22.70
2017-06-17T12:05:10.834Z,22.71
2017-06-17T12:08:06.233Z,22.72
2017-06-17T12:11:01.709Z,22.73
2017-06-17T12:13:57.272Z,22.75
2017-06-17T12:16:52.815Z,22.76
2017-06-17T12:19:48.247Z,22.75
2017-06-17T12:22:43.694Z,22.74
2017-06-17T12:25:39.132Z,22.72
2017-06-17T12:28:34.514Z,22.70
2017-06-17T12:31:29.924Z,22.69
2017-06-17T12:34:25.374Z,22.69
2017-06-17T12:37:20.829Z,22.69
2017-06-17T12:40:16.325Z,22.69
2017-06-17T12:43:11.812Z,22.68
2017-06-17T12:46:07.289Z,22.65
2017-06-17T12:49:02.674Z,22.63
2017-06-17T12:54:53.921Z,22.56
2017-06-17T12:57:49.348Z,22.54
2017-06-17T13:00:44.722Z,22.51
2017-06-17T13:03:40.075Z,22.49
2017-06-17T13:06:35.539Z,22.47
2017-06-17T13:09:30.958Z,22.44
2017-06-17T13:12:26.384Z,22.41
2017-06-17T13:15:21.769Z,22.38
2017-06-17T13:18:17.170Z,22.37
2017-06-17T13:21:12.843Z,22.35
2017-06-17T13:27:03.830Z,22.35
2017-06-17T13:29:59.319Z,22.36
2017-06-17T13:32:54.804Z,22.38
2017-06-17T13:35:50.310Z,22.39
2017-06-17T13:38:45.765Z,22.38
2017-06-17T13:41:41.025Z,22.39
2017-06-17T13:44:36.469Z,22.40
2017-06-17T13:47:31.891Z,22.42
2017-06-17T13:50:27.356Z,22.45
2017-06-17T13:53:22.883Z,22.48
2017-06-17T13:56:18.290Z,22.49
2017-06-17T13:59:13.749Z,22.51
2017-06-17T14:02:09.189Z,22.54
2017-06-17T14:05:04.642Z,22.57
2017-06-17T14:08:00.182Z,22.60
2017-06-17T14:10:55.607Z,22.63
2017-06-17T14:13:51.048Z,22.67
2017-06-17T14:16:46.472Z,22.70
2017-06-17T14:22:37.537Z,22.74
2017-06-17T14:25:32.995Z,22.76
2017-06-17T14:28:28.394Z,22.78
2017-06-17T14:31:23.851Z,22.81
2017-06-17T14:34:19.303Z,22.84
2017-06-17T14:37:14.766Z,22.86
2017-06-17T14:40:10.107Z,22.89
2017-06-17T14:43:05.623Z,22.90
2017-06-17T14:46:01.067Z,22.89
2017-06-17T14:48:56.476Z,22.88
2017-06-17T14:51:51.832Z,22.88
2017-06-17T14:54:47.271Z,22.89
2017-06-17T14:57:43.132Z,22.89
2017-06-17T15:00:38.363Z,22.90
2017-06-17T15:03:34.043Z,22.90
2017-06-17T15:06:29.284Z,22.90
2017-06-17T15:09:24.701Z,22.89
2017-06-17T15:12:20.133Z,22.88
2017-06-17T15:15:15.524Z,22.87
2017-06-17T15:18:10.949Z,22.85
2017-06-17T15:21:06.389Z,22.83
2017-06-17T15:24:01.887Z,22.80
2017-06-17T15:26:57.382Z,22.79
2017-06-17T15:29:52.951Z,22.77
2017-06-17T15:32:48.646Z,22.77
2017-06-17T15:38:39.343Z,22.73
2017-06-17T15:41:34.667Z,22.72
2017-06-17T15:44:30.082Z,22.71
2017-06-17T15:47:25.900Z,22.70
2017-06-17T15:50:21.330Z,22.71
2017-06-17T15:53:16.794Z,22.70
2017-06-17T15:56:12.325Z,22.71
2017-06-17T15:59:07.847Z,22.70
2017-06-17T16:02:03.221Z,22.70
2017-06-17T16:04:58.577Z,22.70
2017-06-17T16:07:53.977Z,22.71
2017-06-17T16:13:44.850Z,22.70
2017-06-17T16:16:40.308Z,22.69
2017-06-17T16:19:35.774Z,22.68
2017-06-17T16:22:31.154Z,22.67
2017-06-17T16:25:26.520Z,22.63
2017-06-17T16:28:21.980Z,22.60
2017-06-17T16:31:17.360Z,22.57
2017-06-17T16:34:12.851Z,22.54
2017-06-17T16:37:08.240Z,22.52
2017-06-17T16:40:03.686Z,22.48
2017-06-17T16:42:59.074Z,22.45
2017-06-17T16:45:54.395Z,22.42
2017-06-17T16:48:49.941Z,22.38
2017-06-17T16:51:45.166Z,22.35
2017-06-17T16:54:40.611Z,22.32
2017-06-17T16:57:35.980Z,22.30
2017-06-17T17:00:31.409Z,22.30
2017-06-17T17:03:26.774Z,22.29
2017-06-17T17:06:22.420Z,22.28
2017-06-17T17:09:17.800Z,22.28
2017-06-17T17:12:13.324Z,22.29
2017-06-17T17:15:08.717Z,22.29
2017-06-17T17:18:04.232Z,22.30
2017-06-17T17:20:59.702Z,22.29
2017-06-17T17:23:55.109Z,22.30
2017-06-17T17:26:50.497Z,22.30
2017-06-17T17:29:45.997Z,22.31
2017-06-17T17:32:52.671Z,22.32
2017-06-17T17:35:43.273Z,22.35
2017-06-17T17:38:38.657Z,22.36
2017-06-17T17:41:34.101Z,22.37
2017-06-17T17:44:29.430Z,22.37
2017-06-17T17:47:25.013Z,22.36
2017-06-17T17:50:20.763Z,22.35
2017-06-17T17:59:07.069Z,22.31
2017-06-17T18:02:02.439Z,22.30
2017-06-17T18:04:58.150Z,22.29
2017-06-17T18:10:48.966Z,22.27
2017-06-17T18:13:44.310Z,22.26
2017-06-17T18:16:39.848Z,22.26
2017-06-17T18:19:35.208Z,22.24
2017-06-17T18:22:30.578Z,22.23
2017-06-17T18:25:26.047Z,22.22
2017-06-17T18:28:21.462Z,22.19
2017-06-17T18:31:16.925Z,22.17
2017-06-17T18:34:12.539Z,22.15
2017-06-17T18:37:07.846Z,22.14
2017-06-17T18:40:03.209Z,22.12
2017-06-17T18:42:58.834Z,22.10
2017-06-17T18:45:54.124Z,22.08
2017-06-17T18:48:49.611Z,22.06
2017-06-17T18:51:44.909Z,22.04
2017-06-17T18:54:40.303Z,22.00
2017-06-17T18:57:35.649Z,21.97
2017-06-17T19:00:31.070Z,21.93
2017-06-17T19:03:26.445Z,21.89
2017-06-17T19:06:21.839Z,21.86
2017-06-17T19:09:17.153Z,21.83
2017-06-17T19:12:12.472Z,21.79
2017-06-17T19:15:07.841Z,21.75
2017-06-17T19:18:03.213Z,21.70
2017-06-17T19:20:58.611Z,21.66
2017-06-17T19:23:54.013Z,21.61
2017-06-17T19:26:49.390Z,21.55
2017-06-17T19:29:44.744Z,21.49
2017-06-17T19:32:40.126Z,21.44
2017-06-17T19:35:35.439Z,21.40
2017-06-17T19:38:30.623Z,21.35
2017-06-17T19:41:25.874Z,21.31
2017-06-17T19:44:21.304Z,21.26
2017-06-17T19:47:17.039Z,21.21
2017-06-17T19:50:12.524Z,21.16
2017-06-17T19:53:07.826Z,21.11
2017-06-17T19:56:03.055Z,21.05
2017-06-17T19:58:58.324Z,21.01
2017-06-17T20:01:53.655Z,20.97
2017-06-17T20:04:49.033Z,20.93
2017-06-17T20:07:44.193Z,20.87
2017-06-17T20:10:39.490Z,20.83
2017-06-17T20:16:29.992Z,20.72
2017-06-17T20:19:25.339Z,20.68
2017-06-17T20:22:20.631Z,20.64
2017-06-17T20:25:15.912Z,20.59
2017-06-17T20:28:11.022Z,20.55
2017-06-17T20:31:06.271Z,20.50
2017-06-17T20:34:01.621Z,20.46
2017-06-17T20:36:56.859Z,20.41
2017-06-17T20:39:52.066Z,20.37
2017-06-17T20:42:47.252Z,20.33
2017-06-17T20:45:42.374Z,20.28
2017-06-17T20:48:37.529Z,20.24
2017-06-17T20:51:32.639Z,20.20
2017-06-17T20:54:27.901Z,20.16
2017-06-17T21:00:18.210Z,20.08
2017-06-17T21:03:13.421Z,20.05
2017-06-17T21:06:08.818Z,20.02
2017-06-17T21:09:04.032Z,19.98
2017-06-17T21:11:59.293Z,19.95
2017-06-17T21:14:54.499Z,19.92
2017-06-17T21:17:49.637Z,19.87
2017-06-17T21:20:44.831Z,19.83
2017-06-17T21:23:40.020Z,19.79
2017-06-17T21:26:35.307Z,19.75
2017-06-17T21:29:30.460Z,19.70
2017-06-17T21:32:25.745Z,19.65
2017-06-17T21:35:20.768Z,19.61
2017-06-17T21:40:42.790Z,19.57
2017-06-17T21:43:27.665Z,19.64
2017-06-17T21:49:17.239Z,19.60
2017-06-17T21:52:23.628Z,19.54
2017-06-17T22:02:57.257Z,19.70
2017-06-17T22:07:22.933Z,19.81
2017-06-17T22:10:07.765Z,19.81
2017-06-17T22:21:53.212Z,19.84
2017-06-17T22:37:57.778Z,19.88
2017-06-17T22:57:16.051Z,20.00
2017-06-17T23:07:20.577Z,19.84
2017-06-17T23:27:24.076Z,19.77
